Edmonton Stony Plain Alta., Canada
Current Conditions -  °F | °C
As of 10:00 AM on Thursday 23 Oct 2014 (Local Time) from CWSE Reporting Station
Broken Clouds Broken Clouds  
Wind Chill: 39°   Ceiling: 11800
Heat Index: 39°   Visibility: 15mi
Dew Point: 33°   Wind: 3mph
Humidity: 81%   Direction: 270°W
Pressure: 29.4"   Gusts: NA
Location:  53.53°N, 114.1°W
Report Text: CWSE 231600Z 27003KT 15SM BKN118 04/01 A2940 RMK SLP966 T00380008 WSI/SWOB
Loading
Personal Weather Stations






























Interactive Weather Map
Tropical Storm Tracking
New forecast layout! Learn more

10-Day Weather Forecast

Advertisements
Track Severe Weather on mobile